createdAt,value
2024-02-14T00:01:23.610Z,7.00
2024-02-14T00:03:51.144Z,7.04
2024-02-14T00:06:19.972Z,6.98
2024-02-14T00:08:47.504Z,7.10
2024-02-14T00:11:15.428Z,7.11
2024-02-14T00:13:42.874Z,6.94
2024-02-14T00:16:11.829Z,6.74
2024-02-14T00:18:39.568Z,6.78
2024-02-14T00:21:07.083Z,6.80
2024-02-14T00:23:34.581Z,6.68
2024-02-14T00:26:02.164Z,6.63
2024-02-14T00:28:30.154Z,6.64
2024-02-14T00:30:57.674Z,6.52
2024-02-14T00:33:25.385Z,6.49
2024-02-14T00:35:53.170Z,6.47
2024-02-14T00:38:20.765Z,6.47
2024-02-14T00:40:48.252Z,6.49
2024-02-14T00:43:15.725Z,6.47
2024-02-14T00:45:43.502Z,6.51
2024-02-14T00:48:11.064Z,6.46
2024-02-14T00:50:39.118Z,6.49
2024-02-14T00:53:06.646Z,6.34
2024-02-14T00:55:34.174Z,6.33
2024-02-14T00:58:01.602Z,6.39
2024-02-14T01:00:29.226Z,6.57
2024-02-14T01:02:57.392Z,6.49
2024-02-14T01:05:25.223Z,6.60
2024-02-14T01:07:55.026Z,6.62
2024-02-14T01:10:22.440Z,6.60
2024-02-14T01:12:50.256Z,6.54
2024-02-14T01:15:17.689Z,6.51
2024-02-14T01:17:48.884Z,6.47
2024-02-14T01:20:16.657Z,6.53
2024-02-14T01:22:44.526Z,6.49
2024-02-14T01:25:12.108Z,6.39
2024-02-14T01:27:39.871Z,6.51
2024-02-14T01:30:07.760Z,6.51
2024-02-14T01:32:35.356Z,6.42
2024-02-14T01:35:02.881Z,6.34
2024-02-14T01:37:30.486Z,6.36
2024-02-14T01:39:58.039Z,6.42
2024-02-14T01:42:25.479Z,6.27
2024-02-14T01:44:52.970Z,6.30
2024-02-14T01:47:20.382Z,6.43
2024-02-14T01:49:48.314Z,6.43
2024-02-14T01:52:16.294Z,6.47
2024-02-14T01:54:43.771Z,6.40
2024-02-14T01:57:12.557Z,6.40
2024-02-14T01:59:40.086Z,6.47
2024-02-14T02:02:10.886Z,6.48
2024-02-14T02:04:38.630Z,6.46
2024-02-14T02:07:06.098Z,6.37
2024-02-14T02:09:34.222Z,6.33
2024-02-14T02:12:02.183Z,6.25
2024-02-14T02:14:31.308Z,6.33
2024-02-14T02:16:58.863Z,6.35
2024-02-14T02:19:26.488Z,6.29
2024-02-14T02:21:54.487Z,6.00
2024-02-14T02:24:21.926Z,6.13
2024-02-14T02:26:49.386Z,6.15
2024-02-14T02:29:17.798Z,6.06
2024-02-14T02:31:45.432Z,5.88
2024-02-14T02:34:13.361Z,5.75
2024-02-14T02:36:44.846Z,5.86
2024-02-14T02:39:15.359Z,5.92
2024-02-14T02:41:42.816Z,6.01
2024-02-14T02:44:10.323Z,5.94
2024-02-14T02:46:37.825Z,5.94
2024-02-14T02:49:05.572Z,5.94
2024-02-14T02:51:33.165Z,5.88
2024-02-14T02:54:00.791Z,5.89
2024-02-14T02:56:29.015Z,5.82
2024-02-14T02:58:56.903Z,5.82
2024-02-14T03:01:26.215Z,5.87
2024-02-14T03:03:53.892Z,5.84
2024-02-14T03:06:21.876Z,5.91
2024-02-14T03:08:50.239Z,5.79
2024-02-14T03:11:17.848Z,5.70
2024-02-14T03:13:45.552Z,5.82
2024-02-14T03:16:13.066Z,5.91
2024-02-14T03:18:40.644Z,5.85
2024-02-14T03:21:08.158Z,5.90
2024-02-14T03:23:35.650Z,5.71
2024-02-14T03:26:03.814Z,5.57
2024-02-14T03:28:31.244Z,5.56
2024-02-14T03:30:58.669Z,5.43
2024-02-14T03:33:26.313Z,5.41
2024-02-14T03:35:54.091Z,5.43
2024-02-14T03:38:28.092Z,5.34
2024-02-14T03:40:55.760Z,5.38
2024-02-14T03:43:25.036Z,5.49
2024-02-14T03:45:53.116Z,5.53
2024-02-14T03:48:20.766Z,5.47
2024-02-14T03:50:49.579Z,5.34
2024-02-14T03:53:18.510Z,5.52
2024-02-14T03:55:46.034Z,5.59
2024-02-14T03:58:15.116Z,5.58
2024-02-14T04:00:42.752Z,5.59
2024-02-14T04:03:13.624Z,5.37
2024-02-14T04:05:41.211Z,5.41
2024-02-14T04:08:11.198Z,5.42
2024-02-14T04:10:38.941Z,5.40
2024-02-14T04:13:06.615Z,5.51
2024-02-14T04:15:34.144Z,5.48
2024-02-14T04:18:07.031Z,5.39
2024-02-14T04:20:35.511Z,5.39
2024-02-14T04:23:03.080Z,5.04
2024-02-14T04:25:30.511Z,5.20
2024-02-14T04:27:57.973Z,5.20
2024-02-14T04:30:25.591Z,5.18
2024-02-14T04:32:53.386Z,5.30
2024-02-14T04:35:21.149Z,5.45
2024-02-14T04:37:50.309Z,5.33
2024-02-14T04:40:17.840Z,5.23
2024-02-14T04:42:45.413Z,5.25
2024-02-14T04:45:12.992Z,5.38
2024-02-14T04:47:40.769Z,5.41
2024-02-14T04:50:08.632Z,5.38
2024-02-14T04:52:36.116Z,5.31
2024-02-14T04:55:04.932Z,5.33
2024-02-14T04:57:32.858Z,5.39
2024-02-14T05:00:00.483Z,5.37
2024-02-14T05:02:29.306Z,5.44
2024-02-14T05:04:56.884Z,5.41
2024-02-14T05:07:24.303Z,5.44
2024-02-14T05:09:53.436Z,5.35
2024-02-14T05:12:21.606Z,5.23
2024-02-14T05:14:50.103Z,5.28
2024-02-14T05:17:17.622Z,5.38
2024-02-14T05:19:45.202Z,5.44
2024-02-14T05:22:12.806Z,5.38
2024-02-14T05:24:40.311Z,5.23
2024-02-14T05:27:07.843Z,5.05
2024-02-14T05:29:36.848Z,5.19
2024-02-14T05:32:05.400Z,5.24
2024-02-14T05:34:33.052Z,5.18
2024-02-14T05:37:00.607Z,5.10
2024-02-14T05:39:28.095Z,5.09
2024-02-14T05:41:55.753Z,5.15
2024-02-14T05:44:23.906Z,5.34
2024-02-14T05:46:51.656Z,5.21
2024-02-14T05:49:19.306Z,5.31
2024-02-14T05:51:46.887Z,5.24
2024-02-14T05:54:14.371Z,5.20
2024-02-14T05:56:41.815Z,5.18
2024-02-14T05:59:11.203Z,5.23
2024-02-14T06:01:38.736Z,5.22
2024-02-14T06:04:06.262Z,5.18
2024-02-14T06:06:33.940Z,5.33
2024-02-14T06:09:01.537Z,5.31
2024-02-14T06:11:29.161Z,5.32
2024-02-14T06:13:56.830Z,5.33
2024-02-14T06:16:24.239Z,5.40
2024-02-14T06:18:51.911Z,5.19
2024-02-14T06:21:20.641Z,5.33
2024-02-14T06:23:48.451Z,5.21
2024-02-14T06:26:16.189Z,5.38
2024-02-14T06:28:43.590Z,5.01
2024-02-14T06:31:11.094Z,5.25
2024-02-14T06:33:38.704Z,5.29
2024-02-14T06:36:06.433Z,5.20
2024-02-14T06:38:34.158Z,5.15
2024-02-14T06:41:02.123Z,5.15
2024-02-14T06:43:30.297Z,5.41
2024-02-14T06:45:58.281Z,5.34
2024-02-14T06:48:26.163Z,5.36
2024-02-14T06:50:53.858Z,5.38
2024-02-14T06:53:21.543Z,5.41
2024-02-14T06:55:49.025Z,5.62
2024-02-14T06:58:16.588Z,5.37
2024-02-14T07:00:45.636Z,5.48
2024-02-14T07:03:13.402Z,5.53
2024-02-14T07:05:41.014Z,5.50
2024-02-14T07:08:08.683Z,5.42
2024-02-14T07:10:36.182Z,5.56
2024-02-14T07:13:04.441Z,5.71
2024-02-14T07:15:31.897Z,5.60
2024-02-14T07:18:00.419Z,5.57
2024-02-14T07:20:28.358Z,5.61
2024-02-14T07:22:57.997Z,5.64
2024-02-14T07:25:25.700Z,5.53
2024-02-14T07:27:53.255Z,5.40
2024-02-14T07:30:20.795Z,5.48
2024-02-14T07:32:48.382Z,5.44
2024-02-14T07:35:15.988Z,5.43
2024-02-14T07:37:43.880Z,5.40
2024-02-14T07:40:11.782Z,5.44
2024-02-14T07:42:39.195Z,5.35
2024-02-14T07:45:06.947Z,5.32
2024-02-14T07:47:34.656Z,5.37
2024-02-14T07:50:03.638Z,5.36
2024-02-14T07:52:32.670Z,5.35
2024-02-14T07:55:01.033Z,5.31
2024-02-14T07:57:28.851Z,5.32
2024-02-14T07:59:56.372Z,5.23
2024-02-14T08:02:23.922Z,5.16
2024-02-14T08:04:53.323Z,5.07
2024-02-14T08:07:21.001Z,5.11
2024-02-14T08:09:48.488Z,5.33
2024-02-14T08:12:16.064Z,5.35
2024-02-14T08:14:43.625Z,5.49
2024-02-14T08:17:11.218Z,5.57
2024-02-14T08:19:39.258Z,5.55
2024-02-14T08:22:08.137Z,5.41
2024-02-14T08:24:35.666Z,5.52
2024-02-14T08:27:03.198Z,5.48
2024-02-14T08:29:30.660Z,5.52
2024-02-14T08:31:58.135Z,5.51
2024-02-14T08:34:26.115Z,5.62
2024-02-14T08:36:54.465Z,5.63
2024-02-14T08:39:21.905Z,5.63
2024-02-14T08:41:49.429Z,5.71
2024-02-14T08:44:16.916Z,5.56
2024-02-14T08:46:46.122Z,5.64
2024-02-14T08:49:13.870Z,5.57
2024-02-14T08:51:41.693Z,5.50
2024-02-14T08:54:09.288Z,5.63
2024-02-14T08:56:36.827Z,5.54
2024-02-14T08:59:04.441Z,5.62
2024-02-14T09:01:31.895Z,5.56
2024-02-14T09:04:00.370Z,5.46
2024-02-14T09:06:28.006Z,5.38
2024-02-14T09:08:56.139Z,5.39
2024-02-14T09:11:24.290Z,5.56
2024-02-14T09:13:57.210Z,5.74
2024-02-14T09:16:24.694Z,5.72
2024-02-14T09:18:52.446Z,5.80
2024-02-14T09:21:21.224Z,5.82
2024-02-14T09:23:49.191Z,5.67
2024-02-14T09:26:19.722Z,5.72
2024-02-14T09:28:47.277Z,5.68
2024-02-14T09:31:18.598Z,5.74
2024-02-14T09:33:47.145Z,5.82
2024-02-14T09:36:15.611Z,5.85
2024-02-14T09:38:43.593Z,5.85
2024-02-14T09:41:18.890Z,5.99
2024-02-14T09:43:46.651Z,6.00
2024-02-14T09:46:14.988Z,5.84
2024-02-14T09:48:46.364Z,5.84
2024-02-14T09:51:14.436Z,5.89
2024-02-14T09:53:42.204Z,5.95
2024-02-14T09:56:13.386Z,5.97
2024-02-14T09:58:41.309Z,6.05
2024-02-14T10:01:08.895Z,5.98
2024-02-14T10:03:37.560Z,5.89
2024-02-14T10:06:05.913Z,5.94
2024-02-14T10:08:34.018Z,5.88
2024-02-14T10:11:01.728Z,5.73
2024-02-14T10:13:30.131Z,5.56
2024-02-14T10:15:57.781Z,5.50
2024-02-14T10:18:25.994Z,5.55
2024-02-14T10:20:59.511Z,5.50
2024-02-14T10:23:31.009Z,5.57
2024-02-14T10:25:58.486Z,5.49
2024-02-14T10:28:32.932Z,5.28
2024-02-14T10:31:06.610Z,5.50
2024-02-14T10:33:34.228Z,5.32
2024-02-14T10:36:04.016Z,5.40
2024-02-14T10:38:32.435Z,5.42
2024-02-14T10:41:01.380Z,5.27
2024-02-14T10:43:28.948Z,5.22
2024-02-14T10:45:56.623Z,5.35
2024-02-14T10:48:28.034Z,5.43
2024-02-14T10:50:56.267Z,5.47
2024-02-14T10:53:23.770Z,5.51
2024-02-14T10:55:51.514Z,5.61
2024-02-14T10:58:19.211Z,5.59
2024-02-14T11:00:47.132Z,5.49
2024-02-14T11:03:16.594Z,5.48
2024-02-14T11:05:46.543Z,5.25
2024-02-14T11:08:21.464Z,5.24
2024-02-14T11:10:56.053Z,5.36
2024-02-14T11:13:26.480Z,5.27
2024-02-14T11:15:55.922Z,5.32
2024-02-14T11:18:27.398Z,5.22
2024-02-14T11:20:54.979Z,5.39
2024-02-14T11:23:22.951Z,5.56
2024-02-14T11:25:50.525Z,5.56
2024-02-14T11:28:18.551Z,5.42
2024-02-14T11:30:46.039Z,5.46
2024-02-14T11:33:24.031Z,5.64
2024-02-14T11:35:52.964Z,5.70
2024-02-14T11:38:21.009Z,5.64
2024-02-14T11:40:48.620Z,5.71
2024-02-14T11:43:18.094Z,5.67
2024-02-14T11:45:46.678Z,5.47
2024-02-14T11:48:14.655Z,5.23
2024-02-14T11:50:42.693Z,5.23
2024-02-14T11:53:14.724Z,5.23
2024-02-14T11:55:42.656Z,5.11
2024-02-14T11:58:11.676Z,5.00
2024-02-14T12:00:42.348Z,5.08
2024-02-14T12:03:13.754Z,5.11
2024-02-14T12:05:42.625Z,5.03
2024-02-14T12:08:10.957Z,4.92
2024-02-14T12:10:41.640Z,5.11
2024-02-14T12:13:09.941Z,5.09
2024-02-14T12:15:41.246Z,5.02
2024-02-14T12:18:12.034Z,4.91
2024-02-14T12:20:39.850Z,4.87
2024-02-14T12:23:07.325Z,4.91
2024-02-14T12:25:35.101Z,4.83
2024-02-14T12:28:02.626Z,4.87
2024-02-14T12:30:59.551Z,4.79
2024-02-14T12:33:27.720Z,4.75
2024-02-14T12:35:56.065Z,4.81
2024-02-14T12:38:26.576Z,4.77
2024-02-14T12:40:57.142Z,4.81
2024-02-14T12:43:24.685Z,4.76
2024-02-14T12:45:52.108Z,4.79
2024-02-14T12:48:23.566Z,4.88
2024-02-14T12:50:52.828Z,4.79
2024-02-14T12:53:23.321Z,4.61
2024-02-14T12:55:50.815Z,4.59
2024-02-14T12:58:18.277Z,4.59
2024-02-14T13:00:46.147Z,4.57
2024-02-14T13:03:16.520Z,4.54
2024-02-14T13:05:46.279Z,4.52
2024-02-14T13:08:13.888Z,4.42
2024-02-14T13:10:41.327Z,4.43
2024-02-14T13:13:08.782Z,4.63
2024-02-14T13:15:36.707Z,4.55
2024-02-14T13:18:04.507Z,4.66
2024-02-14T13:20:32.654Z,4.67
2024-02-14T13:23:00.222Z,4.51
2024-02-14T13:25:27.703Z,4.64
2024-02-14T13:27:56.295Z,4.29
2024-02-14T13:30:24.165Z,4.32
2024-02-14T13:32:51.818Z,4.28
2024-02-14T13:35:19.802Z,4.31
2024-02-14T13:37:47.752Z,4.42
2024-02-14T13:40:15.739Z,4.50
2024-02-14T13:42:43.315Z,4.46
2024-02-14T13:45:11.608Z,4.41
2024-02-14T13:47:43.684Z,4.25
2024-02-14T13:50:11.408Z,4.28
2024-02-14T13:52:38.917Z,4.30
2024-02-14T13:55:06.860Z,4.19
2024-02-14T13:57:40.505Z,4.31
2024-02-14T14:00:10.752Z,4.24
2024-02-14T14:02:44.674Z,4.31
2024-02-14T14:05:15.541Z,4.27
2024-02-14T14:07:54.265Z,4.36
2024-02-14T14:10:29.636Z,4.39
2024-02-14T14:12:57.682Z,4.33
2024-02-14T14:15:25.761Z,4.21
2024-02-14T14:17:53.743Z,4.22
2024-02-14T14:20:21.811Z,4.26
2024-02-14T14:22:49.825Z,4.37
2024-02-14T14:25:19.462Z,4.31
2024-02-14T14:27:47.255Z,4.26
2024-02-14T14:30:15.051Z,4.23
2024-02-14T14:32:42.662Z,4.31
2024-02-14T14:35:13.485Z,4.22
2024-02-14T14:37:41.099Z,4.27
2024-02-14T14:40:09.861Z,4.27
2024-02-14T14:42:38.212Z,4.34
2024-02-14T14:45:06.201Z,4.20
2024-02-14T14:47:34.035Z,4.10
2024-02-14T14:50:01.676Z,4.19
2024-02-14T14:52:29.397Z,4.27
2024-02-14T14:54:56.920Z,4.25
2024-02-14T14:57:24.907Z,4.25
2024-02-14T14:59:54.677Z,4.22
2024-02-14T15:02:23.509Z,4.15
2024-02-14T15:04:52.157Z,4.07
2024-02-14T15:07:21.460Z,4.06
2024-02-14T15:09:49.052Z,4.18
2024-02-14T15:12:16.718Z,4.19
2024-02-14T15:14:44.245Z,4.16
2024-02-14T15:17:11.784Z,4.11
2024-02-14T15:19:39.375Z,4.12
2024-02-14T15:22:06.859Z,4.02
2024-02-14T15:24:37.046Z,4.09
2024-02-14T15:27:06.302Z,4.14
2024-02-14T15:29:52.570Z,4.16
2024-02-14T15:32:38.787Z,4.08
2024-02-14T15:35:06.451Z,4.14
2024-02-14T15:37:33.951Z,4.00
2024-02-14T15:40:01.474Z,3.98
2024-02-14T15:42:29.014Z,3.97
2024-02-14T15:44:56.620Z,3.95
2024-02-14T15:47:24.118Z,3.88
2024-02-14T15:49:51.638Z,3.89
2024-02-14T15:52:21.229Z,4.02
2024-02-14T15:54:49.014Z,3.98
2024-02-14T15:57:16.719Z,3.88
2024-02-14T15:59:44.357Z,3.92
2024-02-14T16:02:11.962Z,4.03
2024-02-14T16:04:39.814Z,3.96
2024-02-14T16:07:07.595Z,3.97
2024-02-14T16:09:35.073Z,3.95
2024-02-14T16:12:02.673Z,4.02
2024-02-14T16:14:30.988Z,4.01
2024-02-14T16:16:58.917Z,3.94
2024-02-14T16:19:26.605Z,3.99
2024-02-14T16:22:02.153Z,4.08
2024-02-14T16:24:37.840Z,4.03
2024-02-14T16:27:05.854Z,3.97
2024-02-14T16:29:33.493Z,3.93
2024-02-14T16:32:01.317Z,4.04
2024-02-14T16:34:29.038Z,4.02
2024-02-14T16:36:56.896Z,3.95
2024-02-14T16:39:35.312Z,4.00
2024-02-14T16:42:09.488Z,4.13
2024-02-14T16:44:37.862Z,4.25
2024-02-14T16:47:05.813Z,4.07
2024-02-14T16:49:36.144Z,4.00
2024-02-14T16:52:03.996Z,4.12
2024-02-14T16:54:32.507Z,4.24
2024-02-14T16:57:06.757Z,4.14
2024-02-14T16:59:34.816Z,4.14
2024-02-14T17:02:02.349Z,4.09
2024-02-14T17:04:30.050Z,3.99
2024-02-14T17:06:57.811Z,3.99
2024-02-14T17:09:25.481Z,-22.34
2024-02-14T17:11:53.177Z,4.15
2024-02-14T17:14:20.681Z,4.17
2024-02-14T17:16:49.726Z,4.22
2024-02-14T17:19:20.871Z,-48.69
2024-02-14T17:21:48.892Z,4.17
2024-02-14T17:24:16.501Z,-22.33
2024-02-14T17:26:44.003Z,-128.00
2024-02-14T17:29:11.925Z,-128.00
2024-02-14T17:31:39.747Z,-128.00
2024-02-14T17:34:07.483Z,-128.00
2024-02-14T17:36:35.199Z,-128.00
2024-02-14T17:39:06.456Z,-128.00
2024-02-14T17:41:34.671Z,-48.73
2024-02-14T17:44:07.226Z,-48.65
2024-02-14T17:46:35.325Z,4.03
2024-02-14T17:49:03.998Z,-22.29
2024-02-14T17:51:33.139Z,-22.18
2024-02-14T17:54:00.628Z,4.14
2024-02-14T17:56:28.139Z,4.22
2024-02-14T17:58:55.644Z,4.11
2024-02-14T18:01:24.421Z,4.23
2024-02-14T18:03:51.890Z,4.31
2024-02-14T18:06:19.544Z,4.01
2024-02-14T18:08:47.178Z,4.00
2024-02-14T18:11:14.707Z,4.02
2024-02-14T18:13:42.405Z,4.08
2024-02-14T18:16:11.473Z,4.08
2024-02-14T18:18:42.502Z,3.95
2024-02-14T18:21:10.135Z,4.09
2024-02-14T18:23:38.662Z,4.04
2024-02-14T18:26:07.511Z,3.97
2024-02-14T18:28:35.100Z,4.07
2024-02-14T18:31:02.540Z,4.04
2024-02-14T18:33:30.230Z,4.13
2024-02-14T18:35:57.814Z,4.10
2024-02-14T18:38:32.277Z,4.22
2024-02-14T18:41:01.022Z,4.16
2024-02-14T18:43:28.744Z,4.16
2024-02-14T18:45:56.486Z,4.09
2024-02-14T18:48:24.051Z,3.99
2024-02-14T18:50:51.637Z,4.13
2024-02-14T18:53:19.234Z,4.10
2024-02-14T18:55:46.817Z,4.24
2024-02-14T18:58:14.282Z,4.08
2024-02-14T19:00:41.693Z,4.13
2024-02-14T19:03:09.279Z,4.15
2024-02-14T19:05:36.818Z,3.99
2024-02-14T19:08:05.053Z,4.02
2024-02-14T19:10:33.085Z,4.01
2024-02-14T19:13:01.740Z,4.10
2024-02-14T19:15:29.362Z,4.16
2024-02-14T19:17:57.849Z,3.83
2024-02-14T19:20:29.165Z,3.99
2024-02-14T19:22:56.769Z,3.99
2024-02-14T19:25:24.681Z,4.01
2024-02-14T19:27:52.195Z,3.94
2024-02-14T19:30:20.026Z,4.11
2024-02-14T19:32:47.652Z,4.09
2024-02-14T19:35:15.147Z,4.13
2024-02-14T19:37:42.906Z,4.09
2024-02-14T19:40:12.367Z,3.99
2024-02-14T19:42:40.061Z,4.11
2024-02-14T19:45:08.151Z,4.05
2024-02-14T19:47:35.662Z,4.11
2024-02-14T19:50:09.071Z,4.11
2024-02-14T19:52:37.933Z,4.07
2024-02-14T19:55:05.729Z,4.25
2024-02-14T19:57:35.736Z,4.18
2024-02-14T20:00:05.631Z,4.16
2024-02-14T20:02:39.757Z,4.14
2024-02-14T20:05:08.960Z,4.08
2024-02-14T20:07:36.697Z,4.09
2024-02-14T20:10:05.461Z,4.17
2024-02-14T20:12:37.336Z,4.20
2024-02-14T20:15:09.605Z,4.15
2024-02-14T20:17:37.256Z,4.12
2024-02-14T20:20:10.868Z,4.20
2024-02-14T20:22:38.441Z,4.18
2024-02-14T20:25:06.083Z,4.23
2024-02-14T20:27:33.974Z,4.18
2024-02-14T20:30:01.541Z,4.17
2024-02-14T20:32:30.138Z,4.14
2024-02-14T20:34:57.854Z,4.22
2024-02-14T20:37:26.069Z,4.21
2024-02-14T20:39:53.425Z,4.12
2024-02-14T20:42:21.636Z,4.10
2024-02-14T20:44:49.146Z,4.22
2024-02-14T20:47:16.736Z,4.17
2024-02-14T20:49:44.820Z,4.24
2024-02-14T20:52:12.367Z,4.23
2024-02-14T20:54:39.791Z,4.13
2024-02-14T20:57:07.290Z,4.32
2024-02-14T20:59:35.214Z,4.19
2024-02-14T21:02:02.686Z,4.38
2024-02-14T21:04:30.287Z,4.24
2024-02-14T21:06:57.884Z,4.22
2024-02-14T21:09:25.339Z,4.20
2024-02-14T21:11:52.850Z,4.16
2024-02-14T21:14:20.355Z,4.09
2024-02-14T21:16:47.972Z,4.20
2024-02-14T21:19:15.419Z,4.16
2024-02-14T21:21:42.915Z,4.07
2024-02-14T21:24:10.917Z,4.09
2024-02-14T21:26:38.504Z,4.04
2024-02-14T21:29:06.746Z,-48.81
2024-02-14T21:31:34.159Z,4.05
2024-02-14T21:34:01.811Z,3.98
2024-02-14T21:36:29.507Z,-22.31
2024-02-14T21:38:56.995Z,4.18
2024-02-14T21:41:24.502Z,4.06
2024-02-14T21:43:52.007Z,4.18
2024-02-14T21:46:19.831Z,4.00
2024-02-14T21:48:47.460Z,-128.00
2024-02-14T21:51:17.418Z,4.18
2024-02-14T21:53:44.862Z,-48.70
2024-02-14T21:56:12.404Z,-22.42
2024-02-14T21:58:39.915Z,4.08
2024-02-14T22:01:09.250Z,4.11
2024-02-14T22:03:36.707Z,4.16
2024-02-14T22:06:04.259Z,4.24
2024-02-14T22:08:31.919Z,4.13
2024-02-14T22:10:59.731Z,-101.60
2024-02-14T22:13:27.207Z,-128.00
2024-02-14T22:15:54.662Z,-128.00
2024-02-14T22:18:22.309Z,-75.18
2024-02-14T22:20:50.987Z,-22.33
2024-02-14T22:23:19.611Z,4.06
2024-02-14T22:25:47.147Z,4.00
2024-02-14T22:28:14.666Z,-48.75
2024-02-14T22:30:42.745Z,-22.33
2024-02-14T22:33:11.419Z,4.18
2024-02-14T22:35:39.348Z,-22.29
2024-02-14T22:38:10.384Z,4.12
2024-02-14T22:40:37.962Z,4.07
2024-02-14T22:43:09.049Z,-48.70
2024-02-14T22:45:37.344Z,4.18
2024-02-14T22:48:07.442Z,-48.68
2024-02-14T22:50:35.182Z,-101.56
2024-02-14T22:53:04.050Z,-101.57
2024-02-14T22:55:32.060Z,-75.11
2024-02-14T22:58:00.561Z,-101.56
2024-02-14T23:00:28.451Z,-101.56
2024-02-14T23:02:56.083Z,-128.00
2024-02-14T23:05:23.755Z,-128.00
2024-02-14T23:07:51.290Z,-128.00
2024-02-14T23:10:18.838Z,-101.56
2024-02-14T23:12:46.380Z,-25.84
2024-02-14T23:15:13.961Z,4.16
2024-02-14T23:17:42.928Z,4.16
2024-02-14T23:20:13.451Z,4.22
2024-02-14T23:22:44.505Z,4.19
2024-02-14T23:25:12.004Z,4.13
2024-02-14T23:27:39.864Z,4.17
2024-02-14T23:30:08.844Z,-25.89
2024-02-14T23:32:39.995Z,4.05
2024-02-14T23:35:11.315Z,-48.77
2024-02-14T23:37:40.567Z,4.07
2024-02-14T23:40:12.039Z,4.13
2024-02-14T23:42:40.454Z,-22.22
2024-02-14T23:45:10.896Z,4.22
2024-02-14T23:47:39.221Z,4.18
2024-02-14T23:50:07.599Z,-75.21
2024-02-14T23:52:35.489Z,-75.21
2024-02-14T23:55:03.100Z,4.11
2024-02-14T23:57:30.606Z,4.01
2024-02-14T23:59:58.141Z,4.05
